createdAt,value
2023-05-06T00:02:10.655Z,64.93
2023-05-06T00:05:14.864Z,66.32
2023-05-06T00:08:18.767Z,65.22
2023-05-06T00:11:22.648Z,64.94
2023-05-06T00:14:26.778Z,65.73
2023-05-06T00:17:31.057Z,65.39
2023-05-06T00:20:35.030Z,67.10
2023-05-06T00:23:38.995Z,67.15
2023-05-06T00:26:43.018Z,66.96
2023-05-06T00:29:47.173Z,65.26
2023-05-06T00:32:51.167Z,66.17
2023-05-06T00:35:55.462Z,65.00
2023-05-06T00:38:59.241Z,62.75
2023-05-06T00:42:03.062Z,62.33
2023-05-06T00:45:07.515Z,63.29
2023-05-06T00:48:12.004Z,63.15
2023-05-06T00:51:16.034Z,65.19
2023-05-06T00:54:19.965Z,68.67
2023-05-06T00:57:23.813Z,69.87
2023-05-06T01:00:28.199Z,71.48
2023-05-06T01:03:32.241Z,71.13
2023-05-06T01:06:36.249Z,69.88
2023-05-06T01:09:41.242Z,69.04
2023-05-06T01:12:45.039Z,70.47
2023-05-06T01:15:49.161Z,68.21
2023-05-06T01:18:53.745Z,67.16
2023-05-06T01:21:57.599Z,68.80
2023-05-06T01:25:01.652Z,68.89
2023-05-06T01:28:05.722Z,67.97
2023-05-06T01:31:09.984Z,67.34
2023-05-06T01:34:13.933Z,66.52
2023-05-06T01:37:18.068Z,68.43
2023-05-06T01:40:22.074Z,67.44
2023-05-06T01:43:26.269Z,66.56
2023-05-06T01:46:30.637Z,65.45
2023-05-06T01:49:34.589Z,64.47
2023-05-06T01:52:38.362Z,65.38
2023-05-06T01:55:42.265Z,65.07
2023-05-06T01:58:46.310Z,65.96
2023-05-06T02:01:51.503Z,68.08
2023-05-06T02:04:55.687Z,68.40
2023-05-06T02:07:59.808Z,69.23
2023-05-06T02:11:03.776Z,68.79
2023-05-06T02:14:07.636Z,68.26
2023-05-06T02:17:13.276Z,68.37
2023-05-06T02:20:17.042Z,66.81
2023-05-06T02:23:20.707Z,69.59
2023-05-06T02:26:25.017Z,69.88
2023-05-06T02:29:28.865Z,70.33
2023-05-06T02:32:32.725Z,69.31
2023-05-06T02:35:36.841Z,68.94
2023-05-06T02:38:40.915Z,68.76
2023-05-06T02:41:44.632Z,68.00
2023-05-06T02:44:51.898Z,67.25
2023-05-06T02:47:55.845Z,66.16
2023-05-06T02:51:00.055Z,64.26
2023-05-06T02:54:04.105Z,64.79
2023-05-06T02:57:08.193Z,64.66
2023-05-06T03:00:12.344Z,64.02
2023-05-06T03:03:16.526Z,65.15
2023-05-06T03:06:21.884Z,64.89
2023-05-06T03:09:26.068Z,65.42
2023-05-06T03:12:30.256Z,66.10
2023-05-06T03:15:34.467Z,67.77
2023-05-06T03:18:38.290Z,68.06
2023-05-06T03:21:42.341Z,69.12
2023-05-06T03:24:46.026Z,67.65
2023-05-06T03:27:50.045Z,70.22
2023-05-06T03:30:54.138Z,70.78
2023-05-06T03:33:57.964Z,72.08
2023-05-06T03:37:02.010Z,71.70
2023-05-06T03:40:06.002Z,70.18
2023-05-06T03:43:10.172Z,69.06
2023-05-06T03:46:14.249Z,73.13
2023-05-06T03:49:18.208Z,72.40
2023-05-06T03:52:22.169Z,72.51
2023-05-06T03:55:26.483Z,70.44
2023-05-06T03:58:30.484Z,71.48
2023-05-06T04:01:34.759Z,71.79
2023-05-06T04:04:38.969Z,71.83
2023-05-06T04:07:43.338Z,71.20
2023-05-06T04:10:47.256Z,71.21
2023-05-06T04:13:51.146Z,70.19
2023-05-06T04:16:56.423Z,69.40
2023-05-06T04:20:00.439Z,70.14
2023-05-06T04:23:04.589Z,68.87
2023-05-06T04:26:08.442Z,70.88
2023-05-06T04:29:12.483Z,71.05
2023-05-06T04:32:16.138Z,71.05
2023-05-06T04:35:22.885Z,70.06
2023-05-06T04:38:27.095Z,72.09
2023-05-06T04:41:31.090Z,72.22
2023-05-06T04:44:35.089Z,73.69
2023-05-06T04:47:38.687Z,72.59
2023-05-06T04:50:42.745Z,70.32
2023-05-06T04:53:46.934Z,69.41
2023-05-06T04:56:50.686Z,69.16
2023-05-06T04:59:54.722Z,68.30
2023-05-06T05:02:58.810Z,68.57
2023-05-06T05:06:02.795Z,69.46
2023-05-06T05:09:06.690Z,68.52
2023-05-06T05:12:10.736Z,68.52
2023-05-06T05:15:14.622Z,69.21
2023-05-06T05:18:18.554Z,69.44
2023-05-06T05:21:23.065Z,68.79
2023-05-06T05:24:26.938Z,68.41
2023-05-06T05:27:30.908Z,67.86
2023-05-06T05:30:34.714Z,68.64
2023-05-06T05:33:38.839Z,70.09
2023-05-06T05:36:42.714Z,68.63
2023-05-06T05:39:46.830Z,67.44
2023-05-06T05:42:50.689Z,68.58
2023-05-06T05:45:54.854Z,66.57
2023-05-06T05:48:58.897Z,66.70
2023-05-06T05:52:03.155Z,67.44
2023-05-06T05:55:07.179Z,67.11
2023-05-06T05:58:10.874Z,65.51
2023-05-06T06:01:15.132Z,65.29
2023-05-06T06:04:19.228Z,64.27
2023-05-06T06:07:22.964Z,64.33
2023-05-06T06:10:27.045Z,65.71
2023-05-06T06:13:31.060Z,65.03
2023-05-06T06:16:38.201Z,64.82
2023-05-06T06:19:42.246Z,63.46
2023-05-06T06:22:46.278Z,65.58
2023-05-06T06:25:50.102Z,66.37
2023-05-06T06:28:54.074Z,69.22
2023-05-06T06:31:58.130Z,68.98
2023-05-06T06:35:02.192Z,69.22
2023-05-06T06:38:06.287Z,68.32
2023-05-06T06:41:10.037Z,66.17
2023-05-06T06:44:13.906Z,67.20
2023-05-06T06:47:17.885Z,66.68
2023-05-06T06:50:22.009Z,66.28
2023-05-06T06:53:25.927Z,65.42
2023-05-06T06:56:29.872Z,67.83
2023-05-06T06:59:33.765Z,67.39
2023-05-06T07:02:37.712Z,65.27
2023-05-06T07:05:41.671Z,66.10
2023-05-06T07:08:45.570Z,62.49
2023-05-06T07:11:49.378Z,62.55
2023-05-06T07:14:53.406Z,62.36
2023-05-06T07:17:57.564Z,63.08
2023-05-06T07:21:01.495Z,62.15
2023-05-06T07:24:05.538Z,63.31
2023-05-06T07:27:09.790Z,62.07
2023-05-06T07:30:13.883Z,61.11
2023-05-06T07:33:17.677Z,61.04
2023-05-06T07:36:21.641Z,60.51
2023-05-06T07:39:26.013Z,62.73
2023-05-06T07:42:30.084Z,62.17
2023-05-06T07:45:34.028Z,58.77
2023-05-06T07:48:38.131Z,58.60
2023-05-06T07:51:41.829Z,59.77
2023-05-06T07:54:46.968Z,57.59
2023-05-06T07:57:51.328Z,57.26
2023-05-06T08:00:55.329Z,58.05
2023-05-06T08:03:59.219Z,59.81
2023-05-06T08:07:03.190Z,58.75
2023-05-06T08:10:07.316Z,59.19
2023-05-06T08:13:12.017Z,59.84
2023-05-06T08:16:15.800Z,58.59
2023-05-06T08:19:19.721Z,57.89
2023-05-06T08:22:23.469Z,57.08
2023-05-06T08:25:28.798Z,55.78
2023-05-06T08:28:32.744Z,55.94
2023-05-06T08:31:36.729Z,53.78
2023-05-06T08:34:40.755Z,55.79
2023-05-06T08:37:45.040Z,55.53
2023-05-06T08:40:48.892Z,54.97
2023-05-06T08:43:53.071Z,54.64
2023-05-06T08:46:57.009Z,55.14
2023-05-06T08:50:01.143Z,55.29
2023-05-06T08:53:05.363Z,54.26
2023-05-06T08:56:09.385Z,55.16
2023-05-06T08:59:13.545Z,54.51
2023-05-06T09:02:17.484Z,53.51
2023-05-06T09:05:21.515Z,53.13
2023-05-06T09:08:25.443Z,55.82
2023-05-06T09:11:29.582Z,54.77
2023-05-06T09:14:33.460Z,52.90
2023-05-06T09:17:37.708Z,54.79
2023-05-06T09:20:41.660Z,52.63
2023-05-06T09:23:46.166Z,54.80
2023-05-06T09:26:49.776Z,52.85
2023-05-06T09:29:53.706Z,53.51
2023-05-06T09:32:57.590Z,50.95
2023-05-06T09:36:01.914Z,52.16
2023-05-06T09:39:05.971Z,52.82
2023-05-06T09:42:09.935Z,51.19
2023-05-06T09:45:15.690Z,53.46
2023-05-06T09:48:19.644Z,55.19
2023-05-06T09:51:23.711Z,52.33
2023-05-06T09:54:27.945Z,49.91
2023-05-06T09:57:31.592Z,49.40
2023-05-06T10:00:35.438Z,51.13
2023-05-06T10:03:39.756Z,49.46
2023-05-06T10:06:43.862Z,50.34
2023-05-06T10:09:47.645Z,50.99
2023-05-06T10:12:51.608Z,50.15
2023-05-06T10:15:55.866Z,50.44
2023-05-06T10:18:59.849Z,50.69
2023-05-06T10:22:05.593Z,49.88
2023-05-06T10:25:10.087Z,48.72
2023-05-06T10:28:16.478Z,48.20
2023-05-06T10:31:29.011Z,48.59
2023-05-06T10:34:33.951Z,49.94
2023-05-06T10:37:37.924Z,47.29
2023-05-06T10:40:41.851Z,50.41
2023-05-06T10:43:45.913Z,48.66
2023-05-06T10:46:50.058Z,46.30
2023-05-06T10:49:54.044Z,46.93
2023-05-06T10:52:58.034Z,47.64
2023-05-06T10:56:01.881Z,46.95
2023-05-06T10:59:06.174Z,46.02
2023-05-06T11:02:10.313Z,47.46
2023-05-06T11:05:13.817Z,47.05
2023-05-06T11:08:17.830Z,47.49
2023-05-06T11:11:22.075Z,48.17
2023-05-06T11:14:25.945Z,47.52
2023-05-06T11:17:30.019Z,48.04
2023-05-06T11:20:33.623Z,48.03
2023-05-06T11:23:37.637Z,51.53
2023-05-06T11:26:41.636Z,49.82
2023-05-06T11:29:45.711Z,48.58
2023-05-06T11:32:52.988Z,51.50
2023-05-06T11:35:57.103Z,51.14
2023-05-06T11:39:05.355Z,49.65
2023-05-06T11:42:09.266Z,51.43
2023-05-06T11:45:13.355Z,49.52
2023-05-06T11:48:17.603Z,49.44
2023-05-06T11:51:21.838Z,48.03
2023-05-06T11:54:25.768Z,45.88
2023-05-06T11:57:29.770Z,45.66
2023-05-06T12:00:33.940Z,44.76
2023-05-06T12:03:38.099Z,46.01
2023-05-06T12:06:42.000Z,44.45
2023-05-06T12:09:46.005Z,46.35
2023-05-06T12:12:49.938Z,47.33
2023-05-06T12:15:54.216Z,46.48
2023-05-06T12:18:57.933Z,45.83
2023-05-06T12:22:01.835Z,46.66
2023-05-06T12:25:09.303Z,46.87
2023-05-06T12:28:13.406Z,47.02
2023-05-06T12:31:19.586Z,46.54
2023-05-06T12:34:23.615Z,46.46
2023-05-06T12:37:27.788Z,44.98
2023-05-06T12:40:31.514Z,44.41
2023-05-06T12:43:35.713Z,45.01
2023-05-06T12:46:39.830Z,44.63
2023-05-06T12:49:43.842Z,43.23
2023-05-06T12:52:47.740Z,44.17
2023-05-06T12:55:51.475Z,44.07
2023-05-06T12:58:55.381Z,43.94
2023-05-06T13:01:59.607Z,44.77
2023-05-06T13:05:03.356Z,43.64
2023-05-06T13:08:07.339Z,44.07
2023-05-06T13:11:11.254Z,42.78
2023-05-06T13:14:15.422Z,43.26
2023-05-06T13:17:19.857Z,41.36
2023-05-06T13:20:24.047Z,41.04
2023-05-06T13:23:27.901Z,40.44
2023-05-06T13:26:31.886Z,41.79
2023-05-06T13:29:36.252Z,42.64
2023-05-06T13:32:40.308Z,40.47
2023-05-06T13:35:44.078Z,38.22
2023-05-06T13:38:48.229Z,40.16
2023-05-06T13:41:53.891Z,43.77
2023-05-06T13:44:58.464Z,43.17
2023-05-06T13:48:03.016Z,44.50
2023-05-06T13:51:06.990Z,43.13
2023-05-06T13:54:10.593Z,41.62
2023-05-06T13:57:14.455Z,43.24
2023-05-06T14:00:18.119Z,40.07
2023-05-06T14:03:23.466Z,41.53
2023-05-06T14:06:27.307Z,40.96
2023-05-06T14:09:31.300Z,42.12
2023-05-06T14:12:35.457Z,41.67
2023-05-06T14:15:39.530Z,41.21
2023-05-06T14:18:43.687Z,40.67
2023-05-06T14:21:47.960Z,37.72
2023-05-06T14:24:51.874Z,42.07
2023-05-06T14:27:56.120Z,43.70
2023-05-06T14:31:00.351Z,45.16
2023-05-06T14:34:04.325Z,47.24
2023-05-06T14:37:08.160Z,48.32
2023-05-06T14:40:12.371Z,44.98
2023-05-06T14:43:16.409Z,44.85
2023-05-06T14:46:20.471Z,47.99
2023-05-06T14:49:24.318Z,46.71
2023-05-06T14:52:28.242Z,45.31
2023-05-06T14:55:32.426Z,43.07
2023-05-06T14:58:36.095Z,44.71
2023-05-06T15:01:39.643Z,47.14
2023-05-06T15:04:43.593Z,49.95
2023-05-06T15:07:47.839Z,54.42
2023-05-06T15:10:52.220Z,56.70
2023-05-06T15:13:56.686Z,58.52
2023-05-06T15:17:00.704Z,55.97
2023-05-06T15:20:04.556Z,51.24
2023-05-06T15:23:08.756Z,50.80
2023-05-06T15:26:13.084Z,55.15
2023-05-06T15:29:17.091Z,53.05
2023-05-06T15:32:21.048Z,50.93
2023-05-06T15:35:25.142Z,50.78
2023-05-06T15:38:29.281Z,49.44
2023-05-06T15:41:33.376Z,47.06
2023-05-06T15:44:37.643Z,46.58
2023-05-06T15:47:41.795Z,46.75
2023-05-06T15:50:47.322Z,47.54
2023-05-06T15:53:51.501Z,49.57
2023-05-06T15:56:55.810Z,49.11
2023-05-06T15:59:59.657Z,47.94
2023-05-06T16:03:07.283Z,47.93
2023-05-06T16:06:12.586Z,48.91
2023-05-06T16:09:16.594Z,49.19
2023-05-06T16:12:20.594Z,47.54
2023-05-06T16:15:24.374Z,48.89
2023-05-06T16:18:29.375Z,49.90
2023-05-06T16:21:33.330Z,47.32
2023-05-06T16:24:37.399Z,46.65
2023-05-06T16:27:41.538Z,46.67
2023-05-06T16:30:45.801Z,47.95
2023-05-06T16:33:49.410Z,49.66
2023-05-06T16:36:53.577Z,51.83
2023-05-06T16:39:57.863Z,51.59
2023-05-06T16:43:11.641Z,50.89
2023-05-06T16:45:56.611Z,50.24
2023-05-06T16:49:04.807Z,50.38
2023-05-06T17:02:56.740Z,51.79
2023-05-06T17:20:55.073Z,52.64
2023-05-06T17:29:37.703Z,50.84
2023-05-06T19:17:38.805Z,58.24
2023-05-06T19:20:43.797Z,58.18
2023-05-06T19:27:14.736Z,59.10
2023-05-06T19:30:19.357Z,59.52
2023-05-06T19:36:47.340Z,59.79
2023-05-06T19:39:51.462Z,60.55
2023-05-06T19:42:56.723Z,60.24
2023-05-06T19:46:00.928Z,60.28
2023-05-06T19:49:05.359Z,59.97
2023-05-06T19:52:13.614Z,61.03
2023-05-06T19:55:17.808Z,61.58
2023-05-06T19:58:22.056Z,61.63
2023-05-06T20:01:26.943Z,61.82
2023-05-06T20:04:32.339Z,60.60
2023-05-06T20:07:36.265Z,60.94
2023-05-06T20:10:45.599Z,61.59
2023-05-06T20:13:50.205Z,62.52
2023-05-06T20:16:54.885Z,62.22
2023-05-06T20:19:59.085Z,59.41
2023-05-06T20:23:03.245Z,61.81
2023-05-06T20:26:07.456Z,60.00
2023-05-06T20:29:11.310Z,60.59
2023-05-06T20:32:15.886Z,62.01
2023-05-06T20:35:20.012Z,62.39
2023-05-06T20:38:25.532Z,62.88
2023-05-06T20:41:34.024Z,62.83
2023-05-06T20:44:37.984Z,63.37
2023-05-06T20:47:41.877Z,62.30
2023-05-06T20:50:46.290Z,61.94
2023-05-06T20:53:50.470Z,62.63
2023-05-06T20:56:57.488Z,60.87
2023-05-06T21:00:01.447Z,62.63
2023-05-06T21:03:07.837Z,62.90
2023-05-06T21:06:11.656Z,63.24
2023-05-06T21:09:17.244Z,63.47
2023-05-06T21:12:21.137Z,63.64
2023-05-06T21:15:25.237Z,65.01
2023-05-06T21:18:32.704Z,65.72
2023-05-06T21:21:37.057Z,66.47
2023-05-06T21:24:42.214Z,66.97
2023-05-06T21:27:50.470Z,65.43
2023-05-06T21:30:54.084Z,65.79
2023-05-06T21:33:57.981Z,65.86
2023-05-06T21:37:08.481Z,65.41
2023-05-06T21:40:12.761Z,65.99
2023-05-06T21:43:17.458Z,66.36
2023-05-06T21:46:24.414Z,65.43
2023-05-06T21:49:28.092Z,64.73
2023-05-06T21:52:32.060Z,64.81
2023-05-06T21:55:35.891Z,64.59
2023-05-06T21:58:39.944Z,63.19
2023-05-06T22:01:43.840Z,63.15
2023-05-06T22:04:47.570Z,62.24
2023-05-06T22:07:51.491Z,62.42
2023-05-06T22:10:55.812Z,62.85
2023-05-06T22:14:00.353Z,64.25
2023-05-06T22:17:06.030Z,65.09
2023-05-06T22:20:10.376Z,65.67
2023-05-06T22:23:14.163Z,65.11
2023-05-06T22:26:18.211Z,65.53
2023-05-06T22:29:22.106Z,64.54
2023-05-06T22:32:25.953Z,64.87
2023-05-06T22:35:30.077Z,63.37
2023-05-06T22:38:33.941Z,63.69
2023-05-06T22:41:37.983Z,63.31
2023-05-06T22:44:41.859Z,63.53
2023-05-06T22:47:45.736Z,63.44
2023-05-06T22:54:18.034Z,65.44
2023-05-06T22:57:22.789Z,63.74
2023-05-06T23:00:27.532Z,62.73
2023-05-06T23:03:31.982Z,61.83
2023-05-06T23:06:36.336Z,64.85
2023-05-06T23:09:40.091Z,65.41
2023-05-06T23:12:47.186Z,65.37
2023-05-06T23:15:50.931Z,64.16
2023-05-06T23:18:54.898Z,64.67
2023-05-06T23:21:58.880Z,63.52
2023-05-06T23:25:02.866Z,64.47
2023-05-06T23:28:06.491Z,63.72
2023-05-06T23:31:10.586Z,62.84
2023-05-06T23:34:14.227Z,64.38
2023-05-06T23:37:19.496Z,66.42
2023-05-06T23:40:23.511Z,66.32
2023-05-06T23:43:27.443Z,66.22
2023-05-06T23:46:31.476Z,67.56
2023-05-06T23:49:35.531Z,69.45
2023-05-06T23:52:39.501Z,68.52
2023-05-06T23:55:47.073Z,68.27
2023-05-06T23:58:51.347Z,67.14
